首页
METAR-TAF:

METAR-TAF

机场 :

基布多, 哥伦比亚

纬度: 05-43N, 经度: 076-37W, 海拔: 53米

当前天气观测

该预报发布于1小时和42分钟前的01:00 UTC
静风
温度 25°C
湿度 100%
气压 1011 hPa
能見度: 5000
少量云层高于1100英尺, 积雨云.
多云层高于1200英尺
阴天层高于8000英尺
雷暴, 小雨

METAR: SKUI 250100Z 00000KT 5000 -TSRA FEW011CB BKN012 OVC080 25/25 Q1011 RMK CB/NE

时间: 21:42 (02:42 UTC)


TAF: 丢失

超过4000个机场的气象观测和天气预报(METAR&TAF报告)。

可查询的气象台以黄色和红色小点在地图上表示。

将鼠标移到小点上方,可查看气象台名称。

然后点击查看天气观测和预报。

如需切换地图:点击带黑十字的绿色按钮放大地图;点击带横线的绿色按钮缩小地图;或者点击绿色箭头查看邻近地区的地图。


METAR-TAF: